sensor_id;sensor_type;location;lat;lon;timestamp;temperature;humidity
20288;DHT22;10303;51.960;8.372;2023-05-10T00:00:40;18.90;99.90
20288;DHT22;10303;51.960;8.372;2023-05-10T00:03:06;18.80;99.90
20288;DHT22;10303;51.960;8.372;2023-05-10T00:05:33;18.80;99.90
20288;DHT22;10303;51.960;8.372;2023-05-10T00:07:59;18.90;99.90
20288;DHT22;10303;51.960;8.372;2023-05-10T00:10:24;18.80;99.90
20288;DHT22;10303;51.960;8.372;2023-05-10T00:12:50;18.80;99.90
20288;DHT22;10303;51.960;8.372;2023-05-10T00:15:16;18.80;99.90
20288;DHT22;10303;51.960;8.372;2023-05-10T00:17:42;18.80;99.90
20288;DHT22;10303;51.960;8.372;2023-05-10T00:20:08;18.80;99.90
20288;DHT22;10303;51.960;8.372;2023-05-10T00:22:35;18.80;99.90
20288;DHT22;10303;51.960;8.372;2023-05-10T00:25:01;18.80;99.90
20288;DHT22;10303;51.960;8.372;2023-05-10T00:27:27;18.80;99.90
20288;DHT22;10303;51.960;8.372;2023-05-10T00:29:53;18.80;99.90
20288;DHT22;10303;51.960;8.372;2023-05-10T00:32:19;18.80;99.90
20288;DHT22;10303;51.960;8.372;2023-05-10T00:34:46;18.80;99.90
20288;DHT22;10303;51.960;8.372;2023-05-10T00:37:12;18.80;99.90
20288;DHT22;10303;51.960;8.372;2023-05-10T00:39:38;18.80;99.90
20288;DHT22;10303;51.960;8.372;2023-05-10T00:42:04;18.80;99.90
20288;DHT22;10303;51.960;8.372;2023-05-10T00:44:30;18.70;99.90
20288;DHT22;10303;51.960;8.372;2023-05-10T00:46:57;18.70;99.90
20288;DHT22;10303;51.960;8.372;2023-05-10T00:49:23;18.70;99.90
20288;DHT22;10303;51.960;8.372;2023-05-10T00:51:50;18.70;99.90
20288;DHT22;10303;51.960;8.372;2023-05-10T00:54:16;18.70;99.90
20288;DHT22;10303;51.960;8.372;2023-05-10T00:56:42;18.70;99.90
20288;DHT22;10303;51.960;8.372;2023-05-10T00:59:15;18.70;99.90
20288;DHT22;10303;51.960;8.372;2023-05-10T01:01:47;18.70;99.90
20288;DHT22;10303;51.960;8.372;2023-05-10T01:04:14;18.70;99.90
20288;DHT22;10303;51.960;8.372;2023-05-10T01:06:41;18.70;99.90
20288;DHT22;10303;51.960;8.372;2023-05-10T01:09:09;18.70;99.90
20288;DHT22;10303;51.960;8.372;2023-05-10T01:11:36;18.70;99.90
20288;DHT22;10303;51.960;8.372;2023-05-10T01:14:03;18.70;99.90
20288;DHT22;10303;51.960;8.372;2023-05-10T01:16:37;18.70;99.90
20288;DHT22;10303;51.960;8.372;2023-05-10T01:19:16;18.70;99.90
20288;DHT22;10303;51.960;8.372;2023-05-10T01:36:56;18.60;99.90
20288;DHT22;10303;51.960;8.372;2023-05-10T01:39:47;18.70;99.90
20288;DHT22;10303;51.960;8.372;2023-05-10T01:42:26;18.60;99.90
20288;DHT22;10303;51.960;8.372;2023-05-10T01:45:26;18.60;99.90
20288;DHT22;10303;51.960;8.372;2023-05-10T01:48:09;18.60;99.90
20288;DHT22;10303;51.960;8.372;2023-05-10T01:50:39;18.60;99.90
20288;DHT22;10303;51.960;8.372;2023-05-10T01:53:10;18.50;99.90
20288;DHT22;10303;51.960;8.372;2023-05-10T01:55:49;18.50;99.90
20288;DHT22;10303;51.960;8.372;2023-05-10T01:58:29;18.50;99.90
20288;DHT22;10303;51.960;8.372;2023-05-10T02:00:59;18.50;99.90
20288;DHT22;10303;51.960;8.372;2023-05-10T02:03:28;18.50;99.90
20288;DHT22;10303;51.960;8.372;2023-05-10T02:05:57;18.50;99.90
20288;DHT22;10303;51.960;8.372;2023-05-10T02:08:24;18.50;99.90
20288;DHT22;10303;51.960;8.372;2023-05-10T02:10:55;18.50;99.90
20288;DHT22;10303;51.960;8.372;2023-05-10T02:13:23;18.50;99.90
20288;DHT22;10303;51.960;8.372;2023-05-10T02:15:53;18.50;99.90
20288;DHT22;10303;51.960;8.372;2023-05-10T02:18:21;18.50;99.90
20288;DHT22;10303;51.960;8.372;2023-05-10T02:20:49;18.40;99.90
20288;DHT22;10303;51.960;8.372;2023-05-10T02:23:18;18.30;99.90
20288;DHT22;10303;51.960;8.372;2023-05-10T02:25:47;18.30;99.90
20288;DHT22;10303;51.960;8.372;2023-05-10T02:28:15;18.30;99.90
20288;DHT22;10303;51.960;8.372;2023-05-10T02:30:43;18.20;99.90
20288;DHT22;10303;51.960;8.372;2023-05-10T02:33:11;18.20;99.90
20288;DHT22;10303;51.960;8.372;2023-05-10T02:35:38;18.20;99.90
20288;DHT22;10303;51.960;8.372;2023-05-10T02:38:06;18.20;99.90
20288;DHT22;10303;51.960;8.372;2023-05-10T02:40:34;18.20;99.90
20288;DHT22;10303;51.960;8.372;2023-05-10T02:43:04;18.20;99.90
20288;DHT22;10303;51.960;8.372;2023-05-10T02:45:35;18.20;99.90
20288;DHT22;10303;51.960;8.372;2023-05-10T02:48:04;18.10;99.90
20288;DHT22;10303;51.960;8.372;2023-05-10T02:50:33;18.10;99.90
20288;DHT22;10303;51.960;8.372;2023-05-10T02:53:10;18.10;99.90
20288;DHT22;10303;51.960;8.372;2023-05-10T02:55:41;18.10;99.90
20288;DHT22;10303;51.960;8.372;2023-05-10T02:58:10;18.10;99.90
20288;DHT22;10303;51.960;8.372;2023-05-10T03:00:36;18.00;99.90
20288;DHT22;10303;51.960;8.372;2023-05-10T03:03:03;18.00;99.90
20288;DHT22;10303;51.960;8.372;2023-05-10T03:05:28;18.00;99.90
20288;DHT22;10303;51.960;8.372;2023-05-10T03:07:59;18.00;99.90
20288;DHT22;10303;51.960;8.372;2023-05-10T03:10:29;17.90;99.90
20288;DHT22;10303;51.960;8.372;2023-05-10T03:16:16;17.90;99.90
20288;DHT22;10303;51.960;8.372;2023-05-10T03:19:01;17.80;99.90
20288;DHT22;10303;51.960;8.372;2023-05-10T03:21:29;17.80;99.90
20288;DHT22;10303;51.960;8.372;2023-05-10T03:24:07;17.80;99.90
20288;DHT22;10303;51.960;8.372;2023-05-10T03:26:37;17.70;99.90
20288;DHT22;10303;51.960;8.372;2023-05-10T03:29:12;17.70;99.90
20288;DHT22;10303;51.960;8.372;2023-05-10T03:31:41;17.50;99.90
20288;DHT22;10303;51.960;8.372;2023-05-10T03:34:07;17.50;99.90
20288;DHT22;10303;51.960;8.372;2023-05-10T03:36:33;17.50;99.90
20288;DHT22;10303;51.960;8.372;2023-05-10T03:38:59;17.30;99.90
20288;DHT22;10303;51.960;8.372;2023-05-10T03:41:26;17.30;99.90
20288;DHT22;10303;51.960;8.372;2023-05-10T03:43:53;17.10;99.90
20288;DHT22;10303;51.960;8.372;2023-05-10T03:46:19;16.70;99.90
20288;DHT22;10303;51.960;8.372;2023-05-10T03:48:45;16.60;99.90
20288;DHT22;10303;51.960;8.372;2023-05-10T03:51:11;16.60;99.90
20288;DHT22;10303;51.960;8.372;2023-05-10T03:53:38;16.60;99.90
20288;DHT22;10303;51.960;8.372;2023-05-10T03:56:05;16.40;99.90
20288;DHT22;10303;51.960;8.372;2023-05-10T03:58:31;16.40;99.90
20288;DHT22;10303;51.960;8.372;2023-05-10T04:00:57;16.40;99.90
20288;DHT22;10303;51.960;8.372;2023-05-10T04:03:23;16.30;99.90
20288;DHT22;10303;51.960;8.372;2023-05-10T04:06:01;16.50;99.90
20288;DHT22;10303;51.960;8.372;2023-05-10T04:08:27;16.40;99.90
20288;DHT22;10303;51.960;8.372;2023-05-10T04:10:54;16.40;99.90
20288;DHT22;10303;51.960;8.372;2023-05-10T04:13:20;16.30;99.90
20288;DHT22;10303;51.960;8.372;2023-05-10T04:15:47;16.20;99.90
20288;DHT22;10303;51.960;8.372;2023-05-10T04:18:13;16.20;99.90
20288;DHT22;10303;51.960;8.372;2023-05-10T04:20:38;16.20;99.90
20288;DHT22;10303;51.960;8.372;2023-05-10T04:23:04;16.20;99.90
20288;DHT22;10303;51.960;8.372;2023-05-10T04:25:33;16.10;99.90
20288;DHT22;10303;51.960;8.372;2023-05-10T04:28:00;16.00;99.90
20288;DHT22;10303;51.960;8.372;2023-05-10T04:30:26;16.00;99.90
20288;DHT22;10303;51.960;8.372;2023-05-10T04:32:54;16.00;99.90
20288;DHT22;10303;51.960;8.372;2023-05-10T04:35:19;15.90;99.90
20288;DHT22;10303;51.960;8.372;2023-05-10T04:37:45;15.80;99.90
20288;DHT22;10303;51.960;8.372;2023-05-10T04:40:11;15.90;99.90
20288;DHT22;10303;51.960;8.372;2023-05-10T04:42:40;15.90;99.90
20288;DHT22;10303;51.960;8.372;2023-05-10T04:45:07;16.00;99.90
20288;DHT22;10303;51.960;8.372;2023-05-10T04:47:34;16.00;99.90
20288;DHT22;10303;51.960;8.372;2023-05-10T04:50:01;15.90;99.90
20288;DHT22;10303;51.960;8.372;2023-05-10T04:52:26;16.00;99.90
20288;DHT22;10303;51.960;8.372;2023-05-10T04:54:52;16.00;99.90
20288;DHT22;10303;51.960;8.372;2023-05-10T04:57:18;16.10;99.90
20288;DHT22;10303;51.960;8.372;2023-05-10T04:59:44;16.00;99.90
20288;DHT22;10303;51.960;8.372;2023-05-10T05:02:10;16.00;99.90
20288;DHT22;10303;51.960;8.372;2023-05-10T05:04:36;16.00;99.90
20288;DHT22;10303;51.960;8.372;2023-05-10T05:07:02;16.10;99.90
20288;DHT22;10303;51.960;8.372;2023-05-10T05:09:28;16.00;99.90
20288;DHT22;10303;51.960;8.372;2023-05-10T05:11:55;16.00;99.90
20288;DHT22;10303;51.960;8.372;2023-05-10T05:14:21;16.10;99.90
20288;DHT22;10303;51.960;8.372;2023-05-10T05:16:47;16.10;99.90
20288;DHT22;10303;51.960;8.372;2023-05-10T05:19:13;16.10;99.90
20288;DHT22;10303;51.960;8.372;2023-05-10T05:21:39;16.00;99.90
20288;DHT22;10303;51.960;8.372;2023-05-10T05:24:06;16.10;99.90
20288;DHT22;10303;51.960;8.372;2023-05-10T05:26:32;16.20;99.90
20288;DHT22;10303;51.960;8.372;2023-05-10T05:28:58;16.10;99.90
20288;DHT22;10303;51.960;8.372;2023-05-10T05:31:23;16.20;99.90
20288;DHT22;10303;51.960;8.372;2023-05-10T05:33:50;16.20;99.90
20288;DHT22;10303;51.960;8.372;2023-05-10T05:36:15;16.10;99.90
20288;DHT22;10303;51.960;8.372;2023-05-10T05:38:42;16.00;99.90
20288;DHT22;10303;51.960;8.372;2023-05-10T05:41:08;15.90;99.90
20288;DHT22;10303;51.960;8.372;2023-05-10T05:43:35;15.90;99.90
20288;DHT22;10303;51.960;8.372;2023-05-10T05:46:01;15.90;99.90
20288;DHT22;10303;51.960;8.372;2023-05-10T05:48:27;15.90;99.90
20288;DHT22;10303;51.960;8.372;2023-05-10T05:50:56;16.00;99.90
20288;DHT22;10303;51.960;8.372;2023-05-10T05:53:22;15.90;99.90
20288;DHT22;10303;51.960;8.372;2023-05-10T05:55:55;15.90;99.90
20288;DHT22;10303;51.960;8.372;2023-05-10T05:58:24;16.10;99.90
20288;DHT22;10303;51.960;8.372;2023-05-10T06:00:51;16.10;99.90
20288;DHT22;10303;51.960;8.372;2023-05-10T06:03:18;16.10;99.90
20288;DHT22;10303;51.960;8.372;2023-05-10T06:05:44;16.20;99.90
20288;DHT22;10303;51.960;8.372;2023-05-10T06:08:10;16.30;99.90
20288;DHT22;10303;51.960;8.372;2023-05-10T06:10:36;16.40;99.90
20288;DHT22;10303;51.960;8.372;2023-05-10T06:13:02;16.40;99.90
20288;DHT22;10303;51.960;8.372;2023-05-10T06:15:28;16.40;99.90
20288;DHT22;10303;51.960;8.372;2023-05-10T06:17:54;16.40;99.90
20288;DHT22;10303;51.960;8.372;2023-05-10T06:20:21;16.50;99.90
20288;DHT22;10303;51.960;8.372;2023-05-10T06:22:46;16.40;99.90
20288;DHT22;10303;51.960;8.372;2023-05-10T06:25:12;16.40;99.90
20288;DHT22;10303;51.960;8.372;2023-05-10T06:27:40;16.40;99.90
20288;DHT22;10303;51.960;8.372;2023-05-10T06:30:06;16.50;99.90
20288;DHT22;10303;51.960;8.372;2023-05-10T06:32:33;16.50;99.90
20288;DHT22;10303;51.960;8.372;2023-05-10T06:34:59;16.50;99.90
20288;DHT22;10303;51.960;8.372;2023-05-10T06:37:25;16.50;99.90
20288;DHT22;10303;51.960;8.372;2023-05-10T06:39:51;16.50;99.90
20288;DHT22;10303;51.960;8.372;2023-05-10T06:42:17;16.50;99.90
20288;DHT22;10303;51.960;8.372;2023-05-10T06:44:46;16.70;99.90
20288;DHT22;10303;51.960;8.372;2023-05-10T06:47:11;16.70;99.90
20288;DHT22;10303;51.960;8.372;2023-05-10T06:49:37;16.70;99.90
20288;DHT22;10303;51.960;8.372;2023-05-10T06:52:03;16.70;99.90
20288;DHT22;10303;51.960;8.372;2023-05-10T06:54:29;16.70;99.90
20288;DHT22;10303;51.960;8.372;2023-05-10T06:56:55;16.80;99.90
20288;DHT22;10303;51.960;8.372;2023-05-10T06:59:21;16.80;99.90
20288;DHT22;10303;51.960;8.372;2023-05-10T07:01:47;16.80;99.90
20288;DHT22;10303;51.960;8.372;2023-05-10T07:04:13;16.70;99.90
20288;DHT22;10303;51.960;8.372;2023-05-10T07:06:39;16.70;99.90
20288;DHT22;10303;51.960;8.372;2023-05-10T07:09:05;16.80;99.90
20288;DHT22;10303;51.960;8.372;2023-05-10T07:11:31;16.90;99.90
20288;DHT22;10303;51.960;8.372;2023-05-10T07:13:57;16.80;99.90
20288;DHT22;10303;51.960;8.372;2023-05-10T07:16:23;16.90;99.90
20288;DHT22;10303;51.960;8.372;2023-05-10T07:18:49;16.90;99.90
20288;DHT22;10303;51.960;8.372;2023-05-10T07:21:16;17.00;99.90
20288;DHT22;10303;51.960;8.372;2023-05-10T07:23:42;17.00;99.90
20288;DHT22;10303;51.960;8.372;2023-05-10T07:26:08;17.00;99.90
20288;DHT22;10303;51.960;8.372;2023-05-10T07:28:34;17.00;99.90
20288;DHT22;10303;51.960;8.372;2023-05-10T07:31:03;17.00;99.90
20288;DHT22;10303;51.960;8.372;2023-05-10T07:33:29;17.00;99.90
20288;DHT22;10303;51.960;8.372;2023-05-10T07:35:54;17.10;99.90
20288;DHT22;10303;51.960;8.372;2023-05-10T07:38:20;17.20;99.90
20288;DHT22;10303;51.960;8.372;2023-05-10T07:40:47;17.20;99.90
20288;DHT22;10303;51.960;8.372;2023-05-10T07:43:13;17.30;99.90
20288;DHT22;10303;51.960;8.372;2023-05-10T07:45:39;17.40;99.90
20288;DHT22;10303;51.960;8.372;2023-05-10T07:48:05;17.30;99.90
20288;DHT22;10303;51.960;8.372;2023-05-10T07:50:31;17.40;99.90
20288;DHT22;10303;51.960;8.372;2023-05-10T07:52:57;17.40;99.90
20288;DHT22;10303;51.960;8.372;2023-05-10T07:55:23;17.50;99.90
20288;DHT22;10303;51.960;8.372;2023-05-10T07:57:49;17.50;99.90
20288;DHT22;10303;51.960;8.372;2023-05-10T08:00:18;17.60;99.90
20288;DHT22;10303;51.960;8.372;2023-05-10T08:02:45;17.60;99.90
20288;DHT22;10303;51.960;8.372;2023-05-10T08:05:12;17.60;99.90
20288;DHT22;10303;51.960;8.372;2023-05-10T08:07:38;17.70;99.90
20288;DHT22;10303;51.960;8.372;2023-05-10T08:10:05;17.80;99.90
20288;DHT22;10303;51.960;8.372;2023-05-10T08:12:32;17.70;99.90
20288;DHT22;10303;51.960;8.372;2023-05-10T08:14:57;17.80;99.90
20288;DHT22;10303;51.960;8.372;2023-05-10T08:17:23;17.80;99.90
20288;DHT22;10303;51.960;8.372;2023-05-10T08:19:49;18.00;99.90
20288;DHT22;10303;51.960;8.372;2023-05-10T08:22:15;18.10;99.90
20288;DHT22;10303;51.960;8.372;2023-05-10T08:24:41;18.20;99.90
20288;DHT22;10303;51.960;8.372;2023-05-10T08:27:08;18.20;99.90
20288;DHT22;10303;51.960;8.372;2023-05-10T08:29:34;18.30;99.90
20288;DHT22;10303;51.960;8.372;2023-05-10T08:32:00;18.20;99.90
20288;DHT22;10303;51.960;8.372;2023-05-10T08:34:27;18.20;99.90
20288;DHT22;10303;51.960;8.372;2023-05-10T08:36:53;18.20;99.90
20288;DHT22;10303;51.960;8.372;2023-05-10T08:39:19;18.10;99.90
20288;DHT22;10303;51.960;8.372;2023-05-10T08:41:47;17.90;99.90
20288;DHT22;10303;51.960;8.372;2023-05-10T08:44:15;18.00;99.90
20288;DHT22;10303;51.960;8.372;2023-05-10T08:46:46;17.80;99.90
20288;DHT22;10303;51.960;8.372;2023-05-10T08:49:17;17.90;99.90
20288;DHT22;10303;51.960;8.372;2023-05-10T08:51:51;17.90;99.90
20288;DHT22;10303;51.960;8.372;2023-05-10T08:54:21;17.90;99.90
20288;DHT22;10303;51.960;8.372;2023-05-10T08:56:48;18.00;99.90
20288;DHT22;10303;51.960;8.372;2023-05-10T08:59:14;18.00;99.90
20288;DHT22;10303;51.960;8.372;2023-05-10T09:01:43;18.10;99.90
20288;DHT22;10303;51.960;8.372;2023-05-10T09:04:11;18.10;99.90
20288;DHT22;10303;51.960;8.372;2023-05-10T09:06:38;18.20;99.90
20288;DHT22;10303;51.960;8.372;2023-05-10T09:09:05;18.00;99.90
20288;DHT22;10303;51.960;8.372;2023-05-10T09:11:31;18.00;99.90
20288;DHT22;10303;51.960;8.372;2023-05-10T09:13:57;17.90;99.90
20288;DHT22;10303;51.960;8.372;2023-05-10T09:16:23;17.90;99.90
20288;DHT22;10303;51.960;8.372;2023-05-10T09:18:50;18.10;99.90
20288;DHT22;10303;51.960;8.372;2023-05-10T09:21:16;18.00;99.90
20288;DHT22;10303;51.960;8.372;2023-05-10T09:23:45;18.10;99.90
20288;DHT22;10303;51.960;8.372;2023-05-10T09:26:12;18.30;99.90
20288;DHT22;10303;51.960;8.372;2023-05-10T09:28:55;18.50;99.90
20288;DHT22;10303;51.960;8.372;2023-05-10T09:31:22;18.40;99.90
20288;DHT22;10303;51.960;8.372;2023-05-10T09:33:51;18.50;99.90
20288;DHT22;10303;51.960;8.372;2023-05-10T09:36:17;18.50;99.90
20288;DHT22;10303;51.960;8.372;2023-05-10T09:38:51;18.50;99.90
20288;DHT22;10303;51.960;8.372;2023-05-10T09:41:21;18.60;99.90
20288;DHT22;10303;51.960;8.372;2023-05-10T09:43:49;18.90;99.90
20288;DHT22;10303;51.960;8.372;2023-05-10T09:46:16;19.00;99.90
20288;DHT22;10303;51.960;8.372;2023-05-10T09:48:43;19.00;99.90
20288;DHT22;10303;51.960;8.372;2023-05-10T09:51:21;19.10;99.90
20288;DHT22;10303;51.960;8.372;2023-05-10T09:53:48;19.20;99.90
20288;DHT22;10303;51.960;8.372;2023-05-10T09:56:35;19.30;99.90
20288;DHT22;10303;51.960;8.372;2023-05-10T09:59:05;19.40;99.90
20288;DHT22;10303;51.960;8.372;2023-05-10T10:01:34;19.40;99.90
20288;DHT22;10303;51.960;8.372;2023-05-10T10:04:07;19.50;99.90
20288;DHT22;10303;51.960;8.372;2023-05-10T10:06:39;19.70;99.90
20288;DHT22;10303;51.960;8.372;2023-05-10T10:09:06;19.90;99.90
20288;DHT22;10303;51.960;8.372;2023-05-10T10:11:37;20.00;99.90
20288;DHT22;10303;51.960;8.372;2023-05-10T10:14:05;20.10;99.90
20288;DHT22;10303;51.960;8.372;2023-05-10T10:16:32;20.20;99.90
20288;DHT22;10303;51.960;8.372;2023-05-10T10:18:58;20.50;99.90
20288;DHT22;10303;51.960;8.372;2023-05-10T10:21:24;20.50;99.90
20288;DHT22;10303;51.960;8.372;2023-05-10T10:23:51;20.70;99.90
20288;DHT22;10303;51.960;8.372;2023-05-10T10:26:18;20.90;99.90
20288;DHT22;10303;51.960;8.372;2023-05-10T10:29:00;20.90;99.90
20288;DHT22;10303;51.960;8.372;2023-05-10T10:31:57;21.00;99.90
20288;DHT22;10303;51.960;8.372;2023-05-10T10:34:45;20.80;99.90
20288;DHT22;10303;51.960;8.372;2023-05-10T10:37:11;20.90;99.90
20288;DHT22;10303;51.960;8.372;2023-05-10T10:39:37;21.20;99.90
20288;DHT22;10303;51.960;8.372;2023-05-10T10:42:04;21.40;99.90
20288;DHT22;10303;51.960;8.372;2023-05-10T10:57:27;22.60;99.90
20288;DHT22;10303;51.960;8.372;2023-05-10T11:00:35;22.70;99.90
20288;DHT22;10303;51.960;8.372;2023-05-10T11:03:08;22.90;99.90
20288;DHT22;10303;51.960;8.372;2023-05-10T11:05:44;23.10;99.90
20288;DHT22;10303;51.960;8.372;2023-05-10T11:08:41;23.20;99.90
20288;DHT22;10303;51.960;8.372;2023-05-10T11:11:08;23.50;99.90
20288;DHT22;10303;51.960;8.372;2023-05-10T11:13:41;23.50;99.90
20288;DHT22;10303;51.960;8.372;2023-05-10T11:16:15;23.50;99.90
20288;DHT22;10303;51.960;8.372;2023-05-10T11:19:03;23.40;99.90
20288;DHT22;10303;51.960;8.372;2023-05-10T11:21:36;23.40;99.90
20288;DHT22;10303;51.960;8.372;2023-05-10T11:24:14;23.30;99.90
20288;DHT22;10303;51.960;8.372;2023-05-10T11:26:42;23.30;99.90
20288;DHT22;10303;51.960;8.372;2023-05-10T11:29:08;23.20;99.90
20288;DHT22;10303;51.960;8.372;2023-05-10T11:31:35;23.30;99.90
20288;DHT22;10303;51.960;8.372;2023-05-10T11:34:09;23.30;99.90
20288;DHT22;10303;51.960;8.372;2023-05-10T11:36:35;23.30;99.90
20288;DHT22;10303;51.960;8.372;2023-05-10T11:39:02;23.10;99.90
20288;DHT22;10303;51.960;8.372;2023-05-10T11:41:30;22.90;99.90
20288;DHT22;10303;51.960;8.372;2023-05-10T11:43:57;22.30;99.90
20288;DHT22;10303;51.960;8.372;2023-05-10T11:46:25;21.90;99.90
20288;DHT22;10303;51.960;8.372;2023-05-10T11:48:59;21.80;99.90
20288;DHT22;10303;51.960;8.372;2023-05-10T11:51:27;21.90;99.90
20288;DHT22;10303;51.960;8.372;2023-05-10T11:53:54;21.90;99.90
20288;DHT22;10303;51.960;8.372;2023-05-10T11:56:21;21.90;99.90
20288;DHT22;10303;51.960;8.372;2023-05-10T11:58:53;21.90;99.90
20288;DHT22;10303;51.960;8.372;2023-05-10T12:01:21;21.90;99.90
20288;DHT22;10303;51.960;8.372;2023-05-10T12:03:53;21.90;99.90
20288;DHT22;10303;51.960;8.372;2023-05-10T12:06:27;21.80;99.90
20288;DHT22;10303;51.960;8.372;2023-05-10T12:08:54;21.70;99.90
20288;DHT22;10303;51.960;8.372;2023-05-10T12:11:25;21.70;99.90
20288;DHT22;10303;51.960;8.372;2023-05-10T12:13:53;21.60;99.90
20288;DHT22;10303;51.960;8.372;2023-05-10T12:16:25;21.60;99.90
20288;DHT22;10303;51.960;8.372;2023-05-10T12:18:57;21.60;99.90
20288;DHT22;10303;51.960;8.372;2023-05-10T12:21:25;21.60;99.90
20288;DHT22;10303;51.960;8.372;2023-05-10T12:23:54;21.50;99.90
20288;DHT22;10303;51.960;8.372;2023-05-10T12:26:26;21.50;99.90
20288;DHT22;10303;51.960;8.372;2023-05-10T12:28:54;21.50;99.90
20288;DHT22;10303;51.960;8.372;2023-05-10T12:31:58;21.50;99.90
20288;DHT22;10303;51.960;8.372;2023-05-10T12:34:32;21.50;99.90
20288;DHT22;10303;51.960;8.372;2023-05-10T12:36:59;21.60;99.90
20288;DHT22;10303;51.960;8.372;2023-05-10T12:39:26;21.60;99.90
20288;DHT22;10303;51.960;8.372;2023-05-10T12:42:07;21.60;99.90
20288;DHT22;10303;51.960;8.372;2023-05-10T12:44:33;21.60;99.90
20288;DHT22;10303;51.960;8.372;2023-05-10T12:46:59;21.70;99.90
20288;DHT22;10303;51.960;8.372;2023-05-10T12:49:25;21.70;99.90
20288;DHT22;10303;51.960;8.372;2023-05-10T12:51:51;21.80;99.90
20288;DHT22;10303;51.960;8.372;2023-05-10T12:54:17;21.90;99.90
20288;DHT22;10303;51.960;8.372;2023-05-10T12:56:43;21.90;99.90
20288;DHT22;10303;51.960;8.372;2023-05-10T12:59:09;22.00;99.90
20288;DHT22;10303;51.960;8.372;2023-05-10T13:01:35;22.10;99.90
20288;DHT22;10303;51.960;8.372;2023-05-10T13:04:00;22.10;99.90
20288;DHT22;10303;51.960;8.372;2023-05-10T13:06:26;22.20;99.90
20288;DHT22;10303;51.960;8.372;2023-05-10T13:08:52;22.20;99.90
20288;DHT22;10303;51.960;8.372;2023-05-10T13:11:19;22.10;99.90
20288;DHT22;10303;51.960;8.372;2023-05-10T13:13:46;21.60;99.90
20288;DHT22;10303;51.960;8.372;2023-05-10T13:16:12;21.20;99.90
20288;DHT22;10303;51.960;8.372;2023-05-10T13:18:38;21.00;99.90
20288;DHT22;10303;51.960;8.372;2023-05-10T13:21:04;21.00;99.90
20288;DHT22;10303;51.960;8.372;2023-05-10T13:23:31;20.90;99.90
20288;DHT22;10303;51.960;8.372;2023-05-10T13:25:57;20.80;99.90
20288;DHT22;10303;51.960;8.372;2023-05-10T13:28:23;20.70;99.90
20288;DHT22;10303;51.960;8.372;2023-05-10T13:30:49;20.50;99.90
20288;DHT22;10303;51.960;8.372;2023-05-10T13:33:15;20.40;99.90
20288;DHT22;10303;51.960;8.372;2023-05-10T13:35:41;20.40;99.90
20288;DHT22;10303;51.960;8.372;2023-05-10T13:38:06;20.30;99.90
20288;DHT22;10303;51.960;8.372;2023-05-10T13:40:33;20.30;99.90
20288;DHT22;10303;51.960;8.372;2023-05-10T13:43:00;20.20;99.90
20288;DHT22;10303;51.960;8.372;2023-05-10T13:45:25;20.20;99.90
20288;DHT22;10303;51.960;8.372;2023-05-10T13:47:51;20.20;99.90
20288;DHT22;10303;51.960;8.372;2023-05-10T13:50:17;20.20;99.90
20288;DHT22;10303;51.960;8.372;2023-05-10T13:52:44;20.20;99.90
20288;DHT22;10303;51.960;8.372;2023-05-10T13:55:10;20.30;99.90
20288;DHT22;10303;51.960;8.372;2023-05-10T13:57:38;20.30;99.90
20288;DHT22;10303;51.960;8.372;2023-05-10T14:00:05;20.40;99.90
20288;DHT22;10303;51.960;8.372;2023-05-10T14:02:33;20.50;99.90
20288;DHT22;10303;51.960;8.372;2023-05-10T14:04:59;20.60;99.90
20288;DHT22;10303;51.960;8.372;2023-05-10T14:07:26;20.60;99.90
20288;DHT22;10303;51.960;8.372;2023-05-10T14:09:53;20.70;99.90
20288;DHT22;10303;51.960;8.372;2023-05-10T14:12:20;20.80;99.90
20288;DHT22;10303;51.960;8.372;2023-05-10T14:14:46;21.00;99.90
20288;DHT22;10303;51.960;8.372;2023-05-10T14:17:12;21.10;99.90
20288;DHT22;10303;51.960;8.372;2023-05-10T14:19:38;21.20;99.90
20288;DHT22;10303;51.960;8.372;2023-05-10T14:22:04;21.20;99.90
20288;DHT22;10303;51.960;8.372;2023-05-10T14:24:31;21.30;99.90
20288;DHT22;10303;51.960;8.372;2023-05-10T14:26:57;21.40;99.90
20288;DHT22;10303;51.960;8.372;2023-05-10T14:29:23;21.50;99.90
20288;DHT22;10303;51.960;8.372;2023-05-10T14:31:49;21.60;99.90
20288;DHT22;10303;51.960;8.372;2023-05-10T14:34:15;21.70;99.90
20288;DHT22;10303;51.960;8.372;2023-05-10T14:36:41;21.80;99.90
20288;DHT22;10303;51.960;8.372;2023-05-10T14:39:07;21.70;99.90
20288;DHT22;10303;51.960;8.372;2023-05-10T14:41:35;21.80;99.90
20288;DHT22;10303;51.960;8.372;2023-05-10T14:44:01;21.90;99.90
20288;DHT22;10303;51.960;8.372;2023-05-10T14:46:28;21.90;99.90
20288;DHT22;10303;51.960;8.372;2023-05-10T14:48:55;22.00;99.90
20288;DHT22;10303;51.960;8.372;2023-05-10T14:51:21;22.00;99.90
20288;DHT22;10303;51.960;8.372;2023-05-10T14:53:51;22.10;99.90
20288;DHT22;10303;51.960;8.372;2023-05-10T14:56:17;22.10;99.90
20288;DHT22;10303;51.960;8.372;2023-05-10T14:58:43;22.10;99.90
20288;DHT22;10303;51.960;8.372;2023-05-10T15:01:10;22.20;99.90
20288;DHT22;10303;51.960;8.372;2023-05-10T15:03:36;22.20;99.90
20288;DHT22;10303;51.960;8.372;2023-05-10T15:06:04;22.20;99.90
20288;DHT22;10303;51.960;8.372;2023-05-10T15:08:30;22.30;99.90
20288;DHT22;10303;51.960;8.372;2023-05-10T15:10:56;22.30;99.90
20288;DHT22;10303;51.960;8.372;2023-05-10T15:13:22;22.40;99.90
20288;DHT22;10303;51.960;8.372;2023-05-10T15:15:48;22.40;99.90
20288;DHT22;10303;51.960;8.372;2023-05-10T15:18:14;22.40;99.90
20288;DHT22;10303;51.960;8.372;2023-05-10T15:20:40;22.40;99.90
20288;DHT22;10303;51.960;8.372;2023-05-10T15:23:06;22.40;99.90
20288;DHT22;10303;51.960;8.372;2023-05-10T15:25:32;22.50;99.90
20288;DHT22;10303;51.960;8.372;2023-05-10T15:28:01;22.50;99.90
20288;DHT22;10303;51.960;8.372;2023-05-10T15:30:28;22.50;99.90
20288;DHT22;10303;51.960;8.372;2023-05-10T15:32:54;22.40;99.90
20288;DHT22;10303;51.960;8.372;2023-05-10T15:35:21;22.20;99.90
20288;DHT22;10303;51.960;8.372;2023-05-10T15:37:48;21.50;99.90
20288;DHT22;10303;51.960;8.372;2023-05-10T15:40:15;20.60;99.90
20288;DHT22;10303;51.960;8.372;2023-05-10T15:42:41;20.80;99.90
20288;DHT22;10303;51.960;8.372;2023-05-10T15:45:07;20.80;99.90
20288;DHT22;10303;51.960;8.372;2023-05-10T15:47:33;20.90;99.90
20288;DHT22;10303;51.960;8.372;2023-05-10T15:49:59;20.90;99.90
20288;DHT22;10303;51.960;8.372;2023-05-10T15:52:25;20.80;99.90
20288;DHT22;10303;51.960;8.372;2023-05-10T15:54:51;20.80;99.90
20288;DHT22;10303;51.960;8.372;2023-05-10T15:57:17;20.80;99.90
20288;DHT22;10303;51.960;8.372;2023-05-10T15:59:43;20.80;99.90
20288;DHT22;10303;51.960;8.372;2023-05-10T16:02:10;20.70;99.90
20288;DHT22;10303;51.960;8.372;2023-05-10T16:04:36;20.70;99.90
20288;DHT22;10303;51.960;8.372;2023-05-10T16:07:03;20.60;99.90